Minden, Iowa
Current Conditions -  °F | °C
As of 6:15 AM on Sunday 25 Jan 2015 (Local Time) from KHNR Reporting Station
Overcast Overcast  
Wind Chill: 22°   Ceiling: 900
Heat Index: 34°   Visibility: 10mi
Dew Point: 34°   Wind: 21mph
Humidity: 100%   Direction: 350°N
Pressure: 29.74"   Gusts: 28mph
Location:  41.47°N, 95.54°W
Report Text: KHNR 251215Z AUTO 35018G24KT 10SM OVC009 01/01 A2974 RMK AO2
Loading
Personal Weather Stations






























Interactive Weather Map New forecast layout! Learn more

10-Day Weather Forecast

Advertisements
Track Severe Weather on mobile